sensor_id;sensor_type;location;lat;lon;timestamp;temperature;humidity
20881;DHT22;10600;53.096;8.802;2023-11-21T00:00:31;9.20;99.90
20881;DHT22;10600;53.096;8.802;2023-11-21T00:01:32;9.20;99.90
20881;DHT22;10600;53.096;8.802;2023-11-21T00:02:33;9.20;99.90
20881;DHT22;10600;53.096;8.802;2023-11-21T00:03:34;9.20;99.90
20881;DHT22;10600;53.096;8.802;2023-11-21T00:04:35;9.20;99.90
20881;DHT22;10600;53.096;8.802;2023-11-21T00:05:35;9.20;99.90
20881;DHT22;10600;53.096;8.802;2023-11-21T00:06:36;9.20;99.90
20881;DHT22;10600;53.096;8.802;2023-11-21T00:07:37;9.20;99.90
20881;DHT22;10600;53.096;8.802;2023-11-21T00:08:38;9.20;99.90
20881;DHT22;10600;53.096;8.802;2023-11-21T00:09:38;9.20;99.90
20881;DHT22;10600;53.096;8.802;2023-11-21T00:10:39;9.20;99.90
20881;DHT22;10600;53.096;8.802;2023-11-21T00:11:39;9.20;99.90
20881;DHT22;10600;53.096;8.802;2023-11-21T00:12:40;9.20;99.90
20881;DHT22;10600;53.096;8.802;2023-11-21T00:13:42;9.30;99.90
20881;DHT22;10600;53.096;8.802;2023-11-21T00:14:42;9.30;99.90
20881;DHT22;10600;53.096;8.802;2023-11-21T00:15:43;9.30;99.90
20881;DHT22;10600;53.096;8.802;2023-11-21T00:16:43;9.30;99.90
20881;DHT22;10600;53.096;8.802;2023-11-21T00:17:44;9.30;99.90
20881;DHT22;10600;53.096;8.802;2023-11-21T00:18:44;9.30;99.90
20881;DHT22;10600;53.096;8.802;2023-11-21T00:19:46;9.30;99.90
20881;DHT22;10600;53.096;8.802;2023-11-21T00:20:47;9.30;99.90
20881;DHT22;10600;53.096;8.802;2023-11-21T00:21:48;9.30;99.90
20881;DHT22;10600;53.096;8.802;2023-11-21T00:22:48;9.20;99.90
20881;DHT22;10600;53.096;8.802;2023-11-21T00:23:49;9.20;99.90
20881;DHT22;10600;53.096;8.802;2023-11-21T00:24:49;9.20;99.90
20881;DHT22;10600;53.096;8.802;2023-11-21T00:25:50;9.20;99.90
20881;DHT22;10600;53.096;8.802;2023-11-21T00:26:53;9.20;99.90
20881;DHT22;10600;53.096;8.802;2023-11-21T00:27:54;9.20;99.90
20881;DHT22;10600;53.096;8.802;2023-11-21T00:28:54;9.20;99.90
20881;DHT22;10600;53.096;8.802;2023-11-21T00:29:55;9.20;99.90
20881;DHT22;10600;53.096;8.802;2023-11-21T00:30:55;9.20;99.90
20881;DHT22;10600;53.096;8.802;2023-11-21T00:31:56;9.10;99.90
20881;DHT22;10600;53.096;8.802;2023-11-21T00:32:56;9.20;99.90
20881;DHT22;10600;53.096;8.802;2023-11-21T00:33:57;9.20;99.90
20881;DHT22;10600;53.096;8.802;2023-11-21T00:34:58;9.20;99.90
20881;DHT22;10600;53.096;8.802;2023-11-21T00:35:59;9.20;99.90
20881;DHT22;10600;53.096;8.802;2023-11-21T00:37:00;9.10;99.90
20881;DHT22;10600;53.096;8.802;2023-11-21T00:38:03;9.20;99.90
20881;DHT22;10600;53.096;8.802;2023-11-21T00:39:04;9.10;99.90
20881;DHT22;10600;53.096;8.802;2023-11-21T00:40:06;9.10;99.90
20881;DHT22;10600;53.096;8.802;2023-11-21T00:41:07;9.10;99.90
20881;DHT22;10600;53.096;8.802;2023-11-21T00:42:08;9.10;99.90
20881;DHT22;10600;53.096;8.802;2023-11-21T00:43:08;9.10;99.90
20881;DHT22;10600;53.096;8.802;2023-11-21T00:44:09;9.10;99.90
20881;DHT22;10600;53.096;8.802;2023-11-21T00:45:10;9.10;99.90
20881;DHT22;10600;53.096;8.802;2023-11-21T00:46:11;9.10;99.90
20881;DHT22;10600;53.096;8.802;2023-11-21T00:47:12;9.10;99.90
20881;DHT22;10600;53.096;8.802;2023-11-21T00:48:12;9.10;99.90
20881;DHT22;10600;53.096;8.802;2023-11-21T00:49:13;9.10;99.90
20881;DHT22;10600;53.096;8.802;2023-11-21T00:50:14;9.10;99.90
20881;DHT22;10600;53.096;8.802;2023-11-21T00:51:15;9.10;99.90
20881;DHT22;10600;53.096;8.802;2023-11-21T00:52:16;9.10;99.90
20881;DHT22;10600;53.096;8.802;2023-11-21T00:53:16;9.00;99.90
20881;DHT22;10600;53.096;8.802;2023-11-21T00:54:17;9.10;99.90
20881;DHT22;10600;53.096;8.802;2023-11-21T00:55:18;9.10;99.90
20881;DHT22;10600;53.096;8.802;2023-11-21T00:56:19;9.00;99.90
20881;DHT22;10600;53.096;8.802;2023-11-21T00:57:19;9.10;99.90
20881;DHT22;10600;53.096;8.802;2023-11-21T00:58:20;9.00;99.90
20881;DHT22;10600;53.096;8.802;2023-11-21T00:59:21;9.00;99.90
20881;DHT22;10600;53.096;8.802;2023-11-21T01:00:23;9.00;99.90
20881;DHT22;10600;53.096;8.802;2023-11-21T01:01:23;9.00;99.90
20881;DHT22;10600;53.096;8.802;2023-11-21T01:02:24;9.00;99.90
20881;DHT22;10600;53.096;8.802;2023-11-21T01:03:26;9.00;99.90
20881;DHT22;10600;53.096;8.802;2023-11-21T01:04:26;9.00;99.90
20881;DHT22;10600;53.096;8.802;2023-11-21T01:05:27;9.00;99.90
20881;DHT22;10600;53.096;8.802;2023-11-21T01:06:28;9.00;99.90
20881;DHT22;10600;53.096;8.802;2023-11-21T01:07:28;9.00;99.90
20881;DHT22;10600;53.096;8.802;2023-11-21T01:08:29;9.10;99.90
20881;DHT22;10600;53.096;8.802;2023-11-21T01:09:30;9.00;99.90
20881;DHT22;10600;53.096;8.802;2023-11-21T01:10:30;9.00;99.90
20881;DHT22;10600;53.096;8.802;2023-11-21T01:11:31;9.00;99.90
20881;DHT22;10600;53.096;8.802;2023-11-21T01:12:31;9.00;99.90
20881;DHT22;10600;53.096;8.802;2023-11-21T01:13:32;9.00;99.90
20881;DHT22;10600;53.096;8.802;2023-11-21T01:14:32;9.00;99.90
20881;DHT22;10600;53.096;8.802;2023-11-21T01:15:33;9.10;99.90
20881;DHT22;10600;53.096;8.802;2023-11-21T01:16:34;9.10;99.90
20881;DHT22;10600;53.096;8.802;2023-11-21T01:17:35;9.10;99.90
20881;DHT22;10600;53.096;8.802;2023-11-21T01:18:36;9.10;99.90
20881;DHT22;10600;53.096;8.802;2023-11-21T01:19:36;9.10;99.90
20881;DHT22;10600;53.096;8.802;2023-11-21T01:20:38;9.10;99.90
20881;DHT22;10600;53.096;8.802;2023-11-21T01:21:39;9.10;99.90
20881;DHT22;10600;53.096;8.802;2023-11-21T01:22:39;9.10;99.90
20881;DHT22;10600;53.096;8.802;2023-11-21T01:23:40;9.10;99.90
20881;DHT22;10600;53.096;8.802;2023-11-21T01:24:41;9.10;99.90
20881;DHT22;10600;53.096;8.802;2023-11-21T01:25:41;9.10;99.90
20881;DHT22;10600;53.096;8.802;2023-11-21T01:26:42;9.10;99.90
20881;DHT22;10600;53.096;8.802;2023-11-21T01:27:42;9.10;99.90
20881;DHT22;10600;53.096;8.802;2023-11-21T01:28:43;9.10;99.90
20881;DHT22;10600;53.096;8.802;2023-11-21T01:29:44;9.00;99.90
20881;DHT22;10600;53.096;8.802;2023-11-21T01:30:45;9.10;99.90
20881;DHT22;10600;53.096;8.802;2023-11-21T01:31:46;9.00;99.90
20881;DHT22;10600;53.096;8.802;2023-11-21T01:32:47;9.00;99.90
20881;DHT22;10600;53.096;8.802;2023-11-21T01:33:48;9.00;99.90
20881;DHT22;10600;53.096;8.802;2023-11-21T01:34:50;9.00;99.90
20881;DHT22;10600;53.096;8.802;2023-11-21T01:35:51;9.00;99.90
20881;DHT22;10600;53.096;8.802;2023-11-21T01:36:53;9.10;99.90
20881;DHT22;10600;53.096;8.802;2023-11-21T01:37:54;9.10;99.90
20881;DHT22;10600;53.096;8.802;2023-11-21T01:38:54;9.10;99.90
20881;DHT22;10600;53.096;8.802;2023-11-21T01:39:55;9.10;99.90
20881;DHT22;10600;53.096;8.802;2023-11-21T01:40:56;9.00;99.90
20881;DHT22;10600;53.096;8.802;2023-11-21T01:41:57;9.10;99.90
20881;DHT22;10600;53.096;8.802;2023-11-21T01:43:01;9.10;99.90
20881;DHT22;10600;53.096;8.802;2023-11-21T01:44:05;9.00;99.90
20881;DHT22;10600;53.096;8.802;2023-11-21T01:45:08;9.10;99.90
20881;DHT22;10600;53.096;8.802;2023-11-21T01:46:10;9.00;99.90
20881;DHT22;10600;53.096;8.802;2023-11-21T01:47:10;9.00;99.90
20881;DHT22;10600;53.096;8.802;2023-11-21T01:48:11;9.00;99.90
20881;DHT22;10600;53.096;8.802;2023-11-21T01:49:13;9.10;99.90
20881;DHT22;10600;53.096;8.802;2023-11-21T01:50:16;9.00;99.90
20881;DHT22;10600;53.096;8.802;2023-11-21T01:51:17;9.10;99.90
20881;DHT22;10600;53.096;8.802;2023-11-21T01:52:19;9.10;99.90
20881;DHT22;10600;53.096;8.802;2023-11-21T01:53:20;9.10;99.90
20881;DHT22;10600;53.096;8.802;2023-11-21T01:54:21;9.10;99.90
20881;DHT22;10600;53.096;8.802;2023-11-21T01:55:22;9.00;99.90
20881;DHT22;10600;53.096;8.802;2023-11-21T01:56:23;9.10;99.90
20881;DHT22;10600;53.096;8.802;2023-11-21T01:57:24;9.00;99.90
20881;DHT22;10600;53.096;8.802;2023-11-21T01:58:25;9.10;99.90
20881;DHT22;10600;53.096;8.802;2023-11-21T01:59:26;9.10;99.90
20881;DHT22;10600;53.096;8.802;2023-11-21T02:00:27;9.00;99.90
20881;DHT22;10600;53.096;8.802;2023-11-21T02:01:28;9.00;99.90
20881;DHT22;10600;53.096;8.802;2023-11-21T02:02:29;9.00;99.90
20881;DHT22;10600;53.096;8.802;2023-11-21T02:03:29;9.00;99.90
20881;DHT22;10600;53.096;8.802;2023-11-21T02:04:30;9.00;99.90
20881;DHT22;10600;53.096;8.802;2023-11-21T02:05:31;9.00;99.90
20881;DHT22;10600;53.096;8.802;2023-11-21T02:06:32;9.10;99.90
20881;DHT22;10600;53.096;8.802;2023-11-21T02:07:35;9.00;99.90
20881;DHT22;10600;53.096;8.802;2023-11-21T02:08:35;9.10;99.90
20881;DHT22;10600;53.096;8.802;2023-11-21T02:09:38;9.00;99.90
20881;DHT22;10600;53.096;8.802;2023-11-21T02:10:38;9.00;99.90
20881;DHT22;10600;53.096;8.802;2023-11-21T02:11:39;9.00;99.90
20881;DHT22;10600;53.096;8.802;2023-11-21T02:12:43;9.10;99.90
20881;DHT22;10600;53.096;8.802;2023-11-21T02:13:44;9.10;99.90
20881;DHT22;10600;53.096;8.802;2023-11-21T02:14:46;9.10;99.90
20881;DHT22;10600;53.096;8.802;2023-11-21T02:15:46;9.10;99.90
20881;DHT22;10600;53.096;8.802;2023-11-21T02:16:50;9.10;99.90
20881;DHT22;10600;53.096;8.802;2023-11-21T02:17:52;9.10;99.90
20881;DHT22;10600;53.096;8.802;2023-11-21T02:18:53;9.10;99.90
20881;DHT22;10600;53.096;8.802;2023-11-21T02:19:54;9.10;99.90
20881;DHT22;10600;53.096;8.802;2023-11-21T02:20:56;9.10;99.90
20881;DHT22;10600;53.096;8.802;2023-11-21T02:21:57;9.10;99.90
20881;DHT22;10600;53.096;8.802;2023-11-21T02:23:03;9.20;99.90
20881;DHT22;10600;53.096;8.802;2023-11-21T02:24:05;9.20;99.90
20881;DHT22;10600;53.096;8.802;2023-11-21T02:25:06;9.20;99.90
20881;DHT22;10600;53.096;8.802;2023-11-21T02:26:08;9.20;99.90
20881;DHT22;10600;53.096;8.802;2023-11-21T02:27:12;9.20;99.90
20881;DHT22;10600;53.096;8.802;2023-11-21T02:28:12;9.20;99.90
20881;DHT22;10600;53.096;8.802;2023-11-21T02:29:15;9.20;99.90
20881;DHT22;10600;53.096;8.802;2023-11-21T02:30:18;9.20;99.90
20881;DHT22;10600;53.096;8.802;2023-11-21T02:31:19;9.20;99.90
20881;DHT22;10600;53.096;8.802;2023-11-21T02:32:20;9.20;99.90
20881;DHT22;10600;53.096;8.802;2023-11-21T02:33:23;9.20;99.90
20881;DHT22;10600;53.096;8.802;2023-11-21T02:34:23;9.30;99.90
20881;DHT22;10600;53.096;8.802;2023-11-21T02:35:25;9.30;99.90
20881;DHT22;10600;53.096;8.802;2023-11-21T02:36:26;9.30;99.90
20881;DHT22;10600;53.096;8.802;2023-11-21T02:37:26;9.30;99.90
20881;DHT22;10600;53.096;8.802;2023-11-21T02:38:27;9.30;99.90
20881;DHT22;10600;53.096;8.802;2023-11-21T02:39:28;9.30;99.90
20881;DHT22;10600;53.096;8.802;2023-11-21T02:40:29;9.30;99.90
20881;DHT22;10600;53.096;8.802;2023-11-21T02:41:30;9.30;99.90
20881;DHT22;10600;53.096;8.802;2023-11-21T02:42:30;9.30;99.90
20881;DHT22;10600;53.096;8.802;2023-11-21T02:43:31;9.30;99.90
20881;DHT22;10600;53.096;8.802;2023-11-21T02:44:31;9.30;99.90
20881;DHT22;10600;53.096;8.802;2023-11-21T02:45:32;9.30;99.90
20881;DHT22;10600;53.096;8.802;2023-11-21T02:46:33;9.30;99.90
20881;DHT22;10600;53.096;8.802;2023-11-21T02:47:34;9.30;99.90
20881;DHT22;10600;53.096;8.802;2023-11-21T02:48:34;9.30;99.90
20881;DHT22;10600;53.096;8.802;2023-11-21T02:49:36;9.30;99.90
20881;DHT22;10600;53.096;8.802;2023-11-21T02:50:37;9.30;99.90
20881;DHT22;10600;53.096;8.802;2023-11-21T02:51:37;9.30;99.90
20881;DHT22;10600;53.096;8.802;2023-11-21T02:52:39;9.30;99.90
20881;DHT22;10600;53.096;8.802;2023-11-21T02:53:42;9.30;99.90
20881;DHT22;10600;53.096;8.802;2023-11-21T02:54:43;9.30;99.90
20881;DHT22;10600;53.096;8.802;2023-11-21T02:55:43;9.30;99.90
20881;DHT22;10600;53.096;8.802;2023-11-21T02:56:44;9.30;99.90
20881;DHT22;10600;53.096;8.802;2023-11-21T02:57:44;9.30;99.90
20881;DHT22;10600;53.096;8.802;2023-11-21T02:58:45;9.30;99.90
20881;DHT22;10600;53.096;8.802;2023-11-21T02:59:46;9.30;99.90
20881;DHT22;10600;53.096;8.802;2023-11-21T03:00:46;9.30;99.90
20881;DHT22;10600;53.096;8.802;2023-11-21T03:01:47;9.30;99.90
20881;DHT22;10600;53.096;8.802;2023-11-21T03:02:47;9.30;99.90
20881;DHT22;10600;53.096;8.802;2023-11-21T03:03:48;9.30;99.90
20881;DHT22;10600;53.096;8.802;2023-11-21T03:04:51;9.30;99.90
20881;DHT22;10600;53.096;8.802;2023-11-21T03:05:52;9.30;99.90
20881;DHT22;10600;53.096;8.802;2023-11-21T03:06:52;9.20;99.90
20881;DHT22;10600;53.096;8.802;2023-11-21T03:07:53;9.20;99.90
20881;DHT22;10600;53.096;8.802;2023-11-21T03:08:53;9.20;99.90
20881;DHT22;10600;53.096;8.802;2023-11-21T03:09:54;9.20;99.90
20881;DHT22;10600;53.096;8.802;2023-11-21T03:10:54;9.20;99.90
20881;DHT22;10600;53.096;8.802;2023-11-21T03:11:56;9.20;99.90
20881;DHT22;10600;53.096;8.802;2023-11-21T03:12:56;9.20;99.90
20881;DHT22;10600;53.096;8.802;2023-11-21T03:13:58;9.20;99.90
20881;DHT22;10600;53.096;8.802;2023-11-21T03:14:58;9.20;99.90
20881;DHT22;10600;53.096;8.802;2023-11-21T03:15:59;9.20;99.90
20881;DHT22;10600;53.096;8.802;2023-11-21T03:16:59;9.20;99.90
20881;DHT22;10600;53.096;8.802;2023-11-21T03:18:00;9.20;99.90
20881;DHT22;10600;53.096;8.802;2023-11-21T03:19:01;9.20;99.90
20881;DHT22;10600;53.096;8.802;2023-11-21T03:20:01;9.20;99.90
20881;DHT22;10600;53.096;8.802;2023-11-21T03:21:05;9.20;99.90
20881;DHT22;10600;53.096;8.802;2023-11-21T03:22:05;9.20;99.90
20881;DHT22;10600;53.096;8.802;2023-11-21T03:23:06;9.20;99.90
20881;DHT22;10600;53.096;8.802;2023-11-21T03:24:07;9.20;99.90
20881;DHT22;10600;53.096;8.802;2023-11-21T03:25:08;9.20;99.90
20881;DHT22;10600;53.096;8.802;2023-11-21T03:26:14;9.20;99.90
20881;DHT22;10600;53.096;8.802;2023-11-21T03:27:14;9.20;99.90
20881;DHT22;10600;53.096;8.802;2023-11-21T03:28:15;9.10;99.90
20881;DHT22;10600;53.096;8.802;2023-11-21T03:29:16;9.20;99.90
20881;DHT22;10600;53.096;8.802;2023-11-21T03:30:16;9.10;99.90
20881;DHT22;10600;53.096;8.802;2023-11-21T03:31:17;9.10;99.90
20881;DHT22;10600;53.096;8.802;2023-11-21T03:32:18;9.10;99.90
20881;DHT22;10600;53.096;8.802;2023-11-21T03:33:19;9.10;99.90
20881;DHT22;10600;53.096;8.802;2023-11-21T03:34:25;9.10;99.90
20881;DHT22;10600;53.096;8.802;2023-11-21T03:35:28;9.00;99.90
20881;DHT22;10600;53.096;8.802;2023-11-21T03:36:29;9.00;99.90
20881;DHT22;10600;53.096;8.802;2023-11-21T03:37:29;9.00;99.90
20881;DHT22;10600;53.096;8.802;2023-11-21T03:38:30;9.00;99.90
20881;DHT22;10600;53.096;8.802;2023-11-21T03:39:31;9.10;99.90
20881;DHT22;10600;53.096;8.802;2023-11-21T03:40:31;9.00;99.90
20881;DHT22;10600;53.096;8.802;2023-11-21T03:41:32;9.00;99.90
20881;DHT22;10600;53.096;8.802;2023-11-21T03:42:32;9.00;99.90
20881;DHT22;10600;53.096;8.802;2023-11-21T03:43:33;9.00;99.90
20881;DHT22;10600;53.096;8.802;2023-11-21T03:44:33;9.00;99.90
20881;DHT22;10600;53.096;8.802;2023-11-21T03:45:34;9.00;99.90
20881;DHT22;10600;53.096;8.802;2023-11-21T03:46:34;9.00;99.90
20881;DHT22;10600;53.096;8.802;2023-11-21T03:47:35;9.00;99.90
20881;DHT22;10600;53.096;8.802;2023-11-21T03:48:35;8.90;99.90
20881;DHT22;10600;53.096;8.802;2023-11-21T03:49:36;8.90;99.90
20881;DHT22;10600;53.096;8.802;2023-11-21T03:50:36;8.90;99.90
20881;DHT22;10600;53.096;8.802;2023-11-21T03:51:37;8.90;99.90
20881;DHT22;10600;53.096;8.802;2023-11-21T03:52:37;8.90;99.90
20881;DHT22;10600;53.096;8.802;2023-11-21T03:53:38;8.90;99.90
20881;DHT22;10600;53.096;8.802;2023-11-21T03:54:39;8.90;99.90
20881;DHT22;10600;53.096;8.802;2023-11-21T03:55:39;8.90;99.90
20881;DHT22;10600;53.096;8.802;2023-11-21T03:56:40;8.90;99.90
20881;DHT22;10600;53.096;8.802;2023-11-21T03:57:40;8.90;99.90
20881;DHT22;10600;53.096;8.802;2023-11-21T03:58:42;8.90;99.90
20881;DHT22;10600;53.096;8.802;2023-11-21T03:59:43;8.90;99.90
20881;DHT22;10600;53.096;8.802;2023-11-21T04:00:43;8.80;99.90
20881;DHT22;10600;53.096;8.802;2023-11-21T04:01:44;8.80;99.90
20881;DHT22;10600;53.096;8.802;2023-11-21T04:02:45;8.80;99.90
20881;DHT22;10600;53.096;8.802;2023-11-21T04:03:45;8.80;99.90
20881;DHT22;10600;53.096;8.802;2023-11-21T04:04:46;8.80;99.90
20881;DHT22;10600;53.096;8.802;2023-11-21T04:05:47;8.80;99.90
20881;DHT22;10600;53.096;8.802;2023-11-21T04:06:48;8.80;99.90
20881;DHT22;10600;53.096;8.802;2023-11-21T04:07:51;8.80;99.90
20881;DHT22;10600;53.096;8.802;2023-11-21T04:08:52;8.80;99.90
20881;DHT22;10600;53.096;8.802;2023-11-21T04:09:52;8.80;99.90
20881;DHT22;10600;53.096;8.802;2023-11-21T04:10:54;8.80;99.90
20881;DHT22;10600;53.096;8.802;2023-11-21T04:11:55;8.80;99.90
20881;DHT22;10600;53.096;8.802;2023-11-21T04:12:56;8.80;99.90
20881;DHT22;10600;53.096;8.802;2023-11-21T04:13:56;8.80;99.90
20881;DHT22;10600;53.096;8.802;2023-11-21T04:14:57;8.80;99.90
20881;DHT22;10600;53.096;8.802;2023-11-21T04:15:57;8.80;99.90
20881;DHT22;10600;53.096;8.802;2023-11-21T04:16:58;8.80;99.90
20881;DHT22;10600;53.096;8.802;2023-11-21T04:17:59;8.70;99.90
20881;DHT22;10600;53.096;8.802;2023-11-21T04:18:59;8.70;99.90
20881;DHT22;10600;53.096;8.802;2023-11-21T04:20:00;8.70;99.90
20881;DHT22;10600;53.096;8.802;2023-11-21T04:21:01;8.70;99.90
20881;DHT22;10600;53.096;8.802;2023-11-21T04:22:02;8.70;99.90
20881;DHT22;10600;53.096;8.802;2023-11-21T04:23:04;8.60;99.90
20881;DHT22;10600;53.096;8.802;2023-11-21T04:24:05;8.60;99.90
20881;DHT22;10600;53.096;8.802;2023-11-21T04:25:08;8.60;99.90
20881;DHT22;10600;53.096;8.802;2023-11-21T04:26:09;8.60;99.90
20881;DHT22;10600;53.096;8.802;2023-11-21T04:27:10;8.60;99.90
20881;DHT22;10600;53.096;8.802;2023-11-21T04:28:10;8.50;99.90
20881;DHT22;10600;53.096;8.802;2023-11-21T04:29:11;8.50;99.90
20881;DHT22;10600;53.096;8.802;2023-11-21T04:30:13;8.60;99.90
20881;DHT22;10600;53.096;8.802;2023-11-21T04:31:14;8.50;99.90
20881;DHT22;10600;53.096;8.802;2023-11-21T04:32:14;8.50;99.90
20881;DHT22;10600;53.096;8.802;2023-11-21T04:33:15;8.50;99.90
20881;DHT22;10600;53.096;8.802;2023-11-21T04:34:15;8.50;99.90
20881;DHT22;10600;53.096;8.802;2023-11-21T04:35:16;8.50;99.90
20881;DHT22;10600;53.096;8.802;2023-11-21T04:36:16;8.50;99.90
20881;DHT22;10600;53.096;8.802;2023-11-21T04:37:17;8.50;99.90
20881;DHT22;10600;53.096;8.802;2023-11-21T04:38:18;8.50;99.90
20881;DHT22;10600;53.096;8.802;2023-11-21T04:39:19;8.40;99.90
20881;DHT22;10600;53.096;8.802;2023-11-21T04:40:20;8.50;99.90
20881;DHT22;10600;53.096;8.802;2023-11-21T04:41:21;8.50;99.90
20881;DHT22;10600;53.096;8.802;2023-11-21T04:42:21;8.40;99.90
20881;DHT22;10600;53.096;8.802;2023-11-21T04:43:22;8.50;99.90
20881;DHT22;10600;53.096;8.802;2023-11-21T04:44:23;8.50;99.90
20881;DHT22;10600;53.096;8.802;2023-11-21T04:45:23;8.50;99.90
20881;DHT22;10600;53.096;8.802;2023-11-21T04:46:24;8.40;99.90
20881;DHT22;10600;53.096;8.802;2023-11-21T04:47:24;8.40;99.90
20881;DHT22;10600;53.096;8.802;2023-11-21T04:48:25;8.40;99.90
20881;DHT22;10600;53.096;8.802;2023-11-21T04:49:25;8.40;99.90
20881;DHT22;10600;53.096;8.802;2023-11-21T04:50:26;8.40;99.90
20881;DHT22;10600;53.096;8.802;2023-11-21T04:51:29;8.40;99.90
20881;DHT22;10600;53.096;8.802;2023-11-21T04:52:30;8.40;99.90
20881;DHT22;10600;53.096;8.802;2023-11-21T04:53:30;8.40;99.90
20881;DHT22;10600;53.096;8.802;2023-11-21T04:54:31;8.40;99.90
20881;DHT22;10600;53.096;8.802;2023-11-21T04:55:31;8.40;99.90
20881;DHT22;10600;53.096;8.802;2023-11-21T04:56:32;8.40;99.90
20881;DHT22;10600;53.096;8.802;2023-11-21T04:57:32;8.40;99.90
20881;DHT22;10600;53.096;8.802;2023-11-21T04:58:33;8.30;99.90
20881;DHT22;10600;53.096;8.802;2023-11-21T04:59:34;8.30;99.90
20881;DHT22;10600;53.096;8.802;2023-11-21T05:00:35;8.30;99.90
20881;DHT22;10600;53.096;8.802;2023-11-21T05:01:36;8.30;99.90
20881;DHT22;10600;53.096;8.802;2023-11-21T05:02:37;8.30;99.90
20881;DHT22;10600;53.096;8.802;2023-11-21T05:03:38;8.30;99.90
20881;DHT22;10600;53.096;8.802;2023-11-21T05:04:39;8.30;99.90
20881;DHT22;10600;53.096;8.802;2023-11-21T05:05:39;8.30;99.90
20881;DHT22;10600;53.096;8.802;2023-11-21T05:06:40;8.30;99.90
20881;DHT22;10600;53.096;8.802;2023-11-21T05:07:40;8.30;99.90
20881;DHT22;10600;53.096;8.802;2023-11-21T05:08:41;8.30;99.90
20881;DHT22;10600;53.096;8.802;2023-11-21T05:09:43;8.30;99.90
20881;DHT22;10600;53.096;8.802;2023-11-21T05:10:46;8.30;99.90
20881;DHT22;10600;53.096;8.802;2023-11-21T05:11:47;8.20;99.90
20881;DHT22;10600;53.096;8.802;2023-11-21T05:12:48;8.20;99.90
20881;DHT22;10600;53.096;8.802;2023-11-21T05:13:50;8.20;99.90
20881;DHT22;10600;53.096;8.802;2023-11-21T05:14:51;8.30;99.90
20881;DHT22;10600;53.096;8.802;2023-11-21T05:15:51;8.20;99.90
20881;DHT22;10600;53.096;8.802;2023-11-21T05:16:52;8.20;99.90
20881;DHT22;10600;53.096;8.802;2023-11-21T05:17:53;8.20;99.90
20881;DHT22;10600;53.096;8.802;2023-11-21T05:18:54;8.20;99.90
20881;DHT22;10600;53.096;8.802;2023-11-21T05:19:59;8.20;99.90
20881;DHT22;10600;53.096;8.802;2023-11-21T05:21:00;8.20;99.90
20881;DHT22;10600;53.096;8.802;2023-11-21T05:22:01;8.20;99.90
20881;DHT22;10600;53.096;8.802;2023-11-21T05:23:02;8.20;99.90
20881;DHT22;10600;53.096;8.802;2023-11-21T05:24:03;8.20;99.90
20881;DHT22;10600;53.096;8.802;2023-11-21T05:25:04;8.20;99.90
20881;DHT22;10600;53.096;8.802;2023-11-21T05:26:05;8.20;99.90
20881;DHT22;10600;53.096;8.802;2023-11-21T05:27:06;8.20;99.90
20881;DHT22;10600;53.096;8.802;2023-11-21T05:28:12;8.10;99.90
20881;DHT22;10600;53.096;8.802;2023-11-21T05:29:28;8.20;99.90
20881;DHT22;10600;53.096;8.802;2023-11-21T05:30:28;8.10;99.90
20881;DHT22;10600;53.096;8.802;2023-11-21T05:31:29;8.10;99.90
20881;DHT22;10600;53.096;8.802;2023-11-21T05:32:29;8.10;99.90
20881;DHT22;10600;53.096;8.802;2023-11-21T05:33:30;8.00;99.90
20881;DHT22;10600;53.096;8.802;2023-11-21T05:34:30;8.10;99.90
20881;DHT22;10600;53.096;8.802;2023-11-21T05:35:31;8.10;99.90
20881;DHT22;10600;53.096;8.802;2023-11-21T05:36:31;8.00;99.90
20881;DHT22;10600;53.096;8.802;2023-11-21T05:37:32;8.00;99.90
20881;DHT22;10600;53.096;8.802;2023-11-21T05:38:32;8.00;99.90
20881;DHT22;10600;53.096;8.802;2023-11-21T05:39:33;7.90;99.90
20881;DHT22;10600;53.096;8.802;2023-11-21T05:40:34;7.90;99.90
20881;DHT22;10600;53.096;8.802;2023-11-21T05:41:34;7.80;99.90
20881;DHT22;10600;53.096;8.802;2023-11-21T05:42:35;7.90;99.90
20881;DHT22;10600;53.096;8.802;2023-11-21T05:43:36;7.80;99.90
20881;DHT22;10600;53.096;8.802;2023-11-21T05:44:41;7.80;99.90
20881;DHT22;10600;53.096;8.802;2023-11-21T05:45:43;7.70;99.90
20881;DHT22;10600;53.096;8.802;2023-11-21T05:46:44;7.70;99.90
20881;DHT22;10600;53.096;8.802;2023-11-21T05:47:45;7.70;99.90
20881;DHT22;10600;53.096;8.802;2023-11-21T05:48:48;7.60;99.90
20881;DHT22;10600;53.096;8.802;2023-11-21T05:49:49;7.70;99.90
20881;DHT22;10600;53.096;8.802;2023-11-21T05:50:51;7.60;99.90
20881;DHT22;10600;53.096;8.802;2023-11-21T05:51:53;7.70;99.90
20881;DHT22;10600;53.096;8.802;2023-11-21T05:52:54;7.60;99.90
20881;DHT22;10600;53.096;8.802;2023-11-21T05:53:55;7.60;99.90
20881;DHT22;10600;53.096;8.802;2023-11-21T05:54:55;7.60;99.90
20881;DHT22;10600;53.096;8.802;2023-11-21T05:55:56;7.60;99.90
20881;DHT22;10600;53.096;8.802;2023-11-21T05:56:56;7.60;99.90
20881;DHT22;10600;53.096;8.802;2023-11-21T05:57:57;7.60;99.90
20881;DHT22;10600;53.096;8.802;2023-11-21T05:58:57;7.50;99.90
20881;DHT22;10600;53.096;8.802;2023-11-21T05:59:58;7.50;99.90
20881;DHT22;10600;53.096;8.802;2023-11-21T06:00:58;7.50;99.90
20881;DHT22;10600;53.096;8.802;2023-11-21T06:01:59;7.50;99.90
20881;DHT22;10600;53.096;8.802;2023-11-21T06:03:00;7.40;99.90
20881;DHT22;10600;53.096;8.802;2023-11-21T06:04:00;7.50;99.90
20881;DHT22;10600;53.096;8.802;2023-11-21T06:05:01;7.40;99.90
20881;DHT22;10600;53.096;8.802;2023-11-21T06:06:02;7.40;99.90
20881;DHT22;10600;53.096;8.802;2023-11-21T06:07:02;7.40;99.90
20881;DHT22;10600;53.096;8.802;2023-11-21T06:08:03;7.40;99.90
20881;DHT22;10600;53.096;8.802;2023-11-21T06:09:04;7.40;99.90
20881;DHT22;10600;53.096;8.802;2023-11-21T06:10:07;7.40;99.90
20881;DHT22;10600;53.096;8.802;2023-11-21T06:11:11;7.30;99.90
20881;DHT22;10600;53.096;8.802;2023-11-21T06:12:12;7.30;99.90
20881;DHT22;10600;53.096;8.802;2023-11-21T06:13:12;7.30;99.90
20881;DHT22;10600;53.096;8.802;2023-11-21T06:14:13;7.30;99.90
20881;DHT22;10600;53.096;8.802;2023-11-21T06:15:13;7.30;99.90
20881;DHT22;10600;53.096;8.802;2023-11-21T06:16:14;7.30;99.90
20881;DHT22;10600;53.096;8.802;2023-11-21T06:17:16;7.40;99.90
20881;DHT22;10600;53.096;8.802;2023-11-21T06:18:18;7.30;99.90
20881;DHT22;10600;53.096;8.802;2023-11-21T06:19:19;7.30;99.90
20881;DHT22;10600;53.096;8.802;2023-11-21T06:20:21;7.30;99.90
20881;DHT22;10600;53.096;8.802;2023-11-21T06:21:22;7.30;99.90
20881;DHT22;10600;53.096;8.802;2023-11-21T06:22:23;7.30;99.90
20881;DHT22;10600;53.096;8.802;2023-11-21T06:23:25;7.30;99.90
20881;DHT22;10600;53.096;8.802;2023-11-21T06:24:25;7.30;99.90
20881;DHT22;10600;53.096;8.802;2023-11-21T06:25:26;7.30;99.90
20881;DHT22;10600;53.096;8.802;2023-11-21T06:26:27;7.30;99.90
20881;DHT22;10600;53.096;8.802;2023-11-21T06:27:29;7.30;99.90
20881;DHT22;10600;53.096;8.802;2023-11-21T06:28:30;7.30;99.90
20881;DHT22;10600;53.096;8.802;2023-11-21T06:29:30;7.30;99.90
20881;DHT22;10600;53.096;8.802;2023-11-21T06:30:32;7.30;99.90
20881;DHT22;10600;53.096;8.802;2023-11-21T06:31:32;7.30;99.90